createdAt,value
2023-01-13T00:01:53.444Z,63511.69
2023-01-13T00:04:25.764Z,63511.69
2023-01-13T00:06:55.374Z,63511.69
2023-01-13T00:09:25.093Z,63511.69
2023-01-13T00:11:54.632Z,63511.69
2023-01-13T00:14:26.404Z,63511.69
2023-01-13T00:16:55.932Z,63511.69
2023-01-13T00:19:28.121Z,63511.69
2023-01-13T00:21:57.733Z,63511.69
2023-01-13T00:24:27.653Z,63511.69
2023-01-13T00:26:57.206Z,63511.69
2023-01-13T00:29:26.792Z,63511.69
2023-01-13T00:31:56.455Z,63511.69
2023-01-13T00:34:28.708Z,63511.69
2023-01-13T00:36:58.371Z,63511.69
2023-01-13T00:39:27.966Z,63511.69
2023-01-13T00:42:10.102Z,63511.69
2023-01-13T00:44:39.763Z,63511.69
2023-01-13T00:47:09.337Z,63511.69
2023-01-13T00:49:41.503Z,63511.69
2023-01-13T00:52:11.180Z,63511.69
2023-01-13T00:54:40.989Z,63511.69
2023-01-13T00:57:10.606Z,63511.69
2023-01-13T00:59:40.128Z,63511.69
2023-01-13T01:02:09.892Z,63511.69
2023-01-13T01:04:42.272Z,63511.69
2023-01-13T01:07:11.863Z,63511.69
2023-01-13T01:09:41.453Z,63511.69
2023-01-13T01:12:11.218Z,63511.69
2023-01-13T01:14:40.864Z,63511.69
2023-01-13T01:17:10.393Z,63511.69
2023-01-13T01:19:42.559Z,63511.69
2023-01-13T01:22:12.174Z,63511.69
2023-01-13T01:24:41.724Z,63511.69
2023-01-13T01:27:11.229Z,63511.69
2023-01-13T01:29:40.753Z,63511.69
2023-01-13T01:32:10.342Z,63511.69
2023-01-13T01:34:42.509Z,63511.69
2023-01-13T01:37:12.075Z,63511.69
2023-01-13T01:39:41.675Z,63511.69
2023-01-13T01:42:30.987Z,63511.69
2023-01-13T01:45:04.268Z,63511.69
2023-01-13T01:47:34.777Z,63511.69
2023-01-13T01:50:07.759Z,63511.69
2023-01-13T01:52:40.152Z,63511.69
2023-01-13T01:55:13.931Z,63511.69
2023-01-13T01:57:49.434Z,63511.69
2023-01-13T02:00:19.460Z,63511.69
2023-01-13T02:02:53.069Z,63511.69
2023-01-13T02:05:25.459Z,63511.69
2023-01-13T02:07:58.971Z,63511.69
2023-01-13T02:10:31.113Z,63511.69
2023-01-13T02:13:02.236Z,63511.69
2023-01-13T02:15:38.294Z,63511.69
2023-01-13T02:18:28.693Z,63511.69
2023-01-13T02:21:26.511Z,63511.69
2023-01-13T02:24:37.006Z,63511.69
2023-01-13T02:27:32.359Z,63511.69
2023-01-13T02:30:34.555Z,63511.69
2023-01-13T02:33:16.771Z,63511.69
2023-01-13T02:35:53.465Z,63511.69
2023-01-13T02:38:27.448Z,63511.69
2023-01-13T02:41:20.045Z,63511.69
2023-01-13T02:44:05.023Z,63511.69
2023-01-13T02:46:42.637Z,63511.69
2023-01-13T02:49:17.572Z,63511.69
2023-01-13T02:51:50.250Z,63511.69
2023-01-13T02:54:24.986Z,63511.69
2023-01-13T02:56:57.546Z,63511.69
2023-01-13T02:59:29.025Z,63511.69
2023-01-13T03:02:03.526Z,63511.69
2023-01-13T03:04:49.731Z,63511.69
2023-01-13T03:07:57.991Z,63511.69
2023-01-13T03:10:38.473Z,63511.69
2023-01-13T03:13:23.283Z,63511.69
2023-01-13T03:16:00.887Z,63511.69
2023-01-13T03:18:43.342Z,63511.69
2023-01-13T03:21:22.490Z,63511.69
2023-01-13T03:23:55.849Z,63511.69
2023-01-13T03:26:32.668Z,63511.69
2023-01-13T03:29:11.921Z,63511.69
2023-01-13T03:31:49.221Z,63511.69
2023-01-13T03:34:24.558Z,63511.69
2023-01-13T03:36:58.240Z,63511.69
2023-01-13T03:39:33.194Z,63511.69
2023-01-13T03:42:06.551Z,63511.69
2023-01-13T03:44:39.338Z,63511.69
2023-01-13T03:47:13.022Z,63511.69
2023-01-13T03:49:48.898Z,63511.69
2023-01-13T03:52:21.597Z,63511.69
2023-01-13T03:54:52.445Z,63511.69
2023-01-13T03:57:23.192Z,63511.69
2023-01-13T03:59:55.493Z,63511.69
2023-01-13T04:02:28.954Z,63511.69
2023-01-13T04:05:03.028Z,63511.69
2023-01-13T04:07:35.718Z,63511.69
2023-01-13T04:10:07.220Z,63511.69
2023-01-13T04:12:51.700Z,63511.69
2023-01-13T04:15:21.637Z,63511.69
2023-01-13T04:17:50.805Z,63511.69
2023-01-13T04:20:22.592Z,63511.69
2023-01-13T04:22:51.789Z,63511.69
2023-01-13T04:25:20.967Z,63511.69
2023-01-13T04:27:50.103Z,63511.69
2023-01-13T04:30:19.636Z,63511.69
2023-01-13T04:32:48.814Z,63511.69
2023-01-13T04:35:18.019Z,63511.69
2023-01-13T04:37:49.773Z,63511.69
2023-01-13T04:40:19.284Z,63511.69
2023-01-13T04:42:48.455Z,63511.69
2023-01-13T04:45:17.647Z,63511.69
2023-01-13T04:47:47.017Z,63511.69
2023-01-13T04:50:19.487Z,63511.69
2023-01-13T04:52:51.774Z,63511.69
2023-01-13T04:55:21.611Z,63511.69
2023-01-13T04:57:50.841Z,63511.69
2023-01-13T05:00:21.581Z,63511.69
2023-01-13T05:02:51.858Z,63511.69
2023-01-13T05:05:21.624Z,63511.69
2023-01-13T05:07:53.375Z,63511.69
2023-01-13T05:10:24.054Z,63511.69
2023-01-13T05:13:05.932Z,63511.69
2023-01-13T05:15:47.830Z,63511.69
2023-01-13T05:18:17.355Z,63511.69
2023-01-13T05:20:46.510Z,63511.69
2023-01-13T05:23:30.804Z,63511.69
2023-01-13T05:25:59.965Z,63511.69
2023-01-13T05:28:29.283Z,63511.69
2023-01-13T05:30:59.596Z,63511.69
2023-01-13T05:33:29.057Z,63511.69
2023-01-13T05:35:58.454Z,63511.69
2023-01-13T05:38:30.207Z,63511.69
2023-01-13T05:41:13.974Z,63511.69
2023-01-13T05:43:43.146Z,63511.69
2023-01-13T05:46:12.665Z,63511.69
2023-01-13T05:48:42.679Z,63511.69
2023-01-13T05:51:12.692Z,63511.69
2023-01-13T05:53:44.445Z,63511.69
2023-01-13T05:56:17.383Z,63511.69
2023-01-13T05:58:46.638Z,63511.69
2023-01-13T06:01:15.828Z,63511.69
2023-01-13T06:03:45.027Z,63511.69
2023-01-13T06:06:14.233Z,63511.69
2023-01-13T06:08:45.993Z,63511.69
2023-01-13T06:11:15.156Z,63511.69
2023-01-13T06:13:44.357Z,63511.69
2023-01-13T06:16:13.629Z,63511.69
2023-01-13T06:18:42.869Z,63511.69
2023-01-13T06:21:12.032Z,63511.69
2023-01-13T06:23:41.192Z,63511.69
2023-01-13T06:26:17.037Z,63511.69
2023-01-13T06:28:46.222Z,63511.69
2023-01-13T06:31:15.434Z,63511.69
2023-01-13T06:33:47.190Z,63511.69
2023-01-13T06:36:18.375Z,63511.69
2023-01-13T06:38:49.990Z,63511.69
2023-01-13T06:41:42.489Z,63511.69
2023-01-13T06:44:09.198Z,63511.69
2023-01-13T06:46:38.415Z,63511.69
2023-01-13T06:49:07.667Z,63511.69
2023-01-13T06:51:36.873Z,63511.69
2023-01-13T06:54:06.283Z,63511.69
2023-01-13T06:56:38.077Z,63511.69
2023-01-13T06:59:07.271Z,63511.69
2023-01-13T07:01:36.508Z,63511.69
2023-01-13T07:04:05.761Z,63511.69
2023-01-13T07:06:34.929Z,63511.69
2023-01-13T07:09:06.763Z,63511.69
2023-01-13T07:11:38.688Z,63511.69
2023-01-13T07:14:20.384Z,63511.69
2023-01-13T07:16:49.626Z,63511.69
2023-01-13T07:19:23.307Z,63511.69
2023-01-13T07:21:53.383Z,63511.69
2023-01-13T07:24:22.854Z,63511.69
2023-01-13T07:26:55.252Z,63511.69
2023-01-13T07:29:24.455Z,63511.69
2023-01-13T07:31:53.666Z,63511.69
2023-01-13T07:34:22.855Z,63511.69
2023-01-13T07:36:52.056Z,63511.69
2023-01-13T07:39:21.321Z,63511.69
2023-01-13T07:42:03.015Z,63511.69
2023-01-13T07:44:34.806Z,63511.69
2023-01-13T07:47:06.025Z,63511.69
2023-01-13T07:49:35.306Z,63511.69
2023-01-13T07:52:04.538Z,63511.69
2023-01-13T07:54:40.735Z,63511.69
2023-01-13T07:57:10.712Z,63511.69
2023-01-13T07:59:42.485Z,63511.69
2023-01-13T08:02:13.959Z,63511.69
2023-01-13T08:04:43.336Z,63511.69
2023-01-13T08:07:12.565Z,63511.69
2023-01-13T08:09:41.730Z,63511.69
2023-01-13T08:12:23.264Z,63511.69
2023-01-13T08:14:55.002Z,63511.69
2023-01-13T08:17:24.412Z,63511.69
2023-01-13T08:19:53.604Z,63511.69
2023-01-13T08:22:22.891Z,63511.69
2023-01-13T08:24:52.185Z,63511.69
2023-01-13T08:27:21.758Z,63511.69
2023-01-13T08:29:50.912Z,63511.69
2023-01-13T08:32:22.749Z,63511.69
2023-01-13T08:34:51.931Z,63511.69
2023-01-13T08:37:21.110Z,63511.69
2023-01-13T08:39:50.324Z,63511.69
2023-01-13T08:42:19.542Z,63511.69
2023-01-13T08:44:48.745Z,63511.69
2023-01-13T08:47:17.949Z,63511.69
2023-01-13T08:49:49.720Z,63511.69
2023-01-13T08:52:18.929Z,63511.69
2023-01-13T08:54:48.203Z,63511.69
2023-01-13T08:57:19.485Z,63511.69
2023-01-13T08:59:48.860Z,63511.69
2023-01-13T09:02:19.241Z,63511.69
2023-01-13T09:04:51.417Z,63511.69
2023-01-13T09:07:20.673Z,63511.69
2023-01-13T09:09:49.955Z,63511.69
2023-01-13T09:12:31.850Z,63511.69
2023-01-13T09:15:01.191Z,63511.69
2023-01-13T09:17:31.540Z,63511.69
2023-01-13T09:20:03.433Z,63511.69
2023-01-13T09:22:35.574Z,63511.69
2023-01-13T09:25:04.736Z,63511.69
2023-01-13T09:27:33.955Z,63511.69
2023-01-13T09:30:03.134Z,63511.69
2023-01-13T09:32:32.761Z,63511.69
2023-01-13T09:35:03.894Z,63511.69
2023-01-13T09:37:34.564Z,63511.69
2023-01-13T09:40:03.919Z,63511.69
2023-01-13T09:42:48.807Z,63511.69
2023-01-13T09:45:20.672Z,63511.69
2023-01-13T09:47:55.936Z,63511.69
2023-01-13T09:50:31.545Z,63511.69
2023-01-13T09:53:00.820Z,63511.69
2023-01-13T09:55:33.549Z,63511.69
2023-01-13T09:58:04.486Z,63511.69
2023-01-13T10:00:38.424Z,63511.69
2023-01-13T10:03:20.879Z,63511.69
2023-01-13T10:06:57.803Z,99711.69
2023-01-13T10:09:27.093Z,99698.75
2023-01-13T10:11:55.988Z,99696.94
2023-01-13T10:14:24.526Z,99698.97
2023-01-13T10:16:55.101Z,99701.00
2023-01-13T10:19:23.242Z,99706.41
2023-01-13T10:22:01.101Z,99703.56
2023-01-13T10:24:32.860Z,99694.38
2023-01-13T10:27:02.504Z,99703.72
2023-01-13T10:29:29.459Z,99722.19
2023-01-13T10:31:57.122Z,99703.56
2023-01-13T10:34:23.998Z,99693.56
2023-01-13T10:37:00.246Z,99697.59
2023-01-13T10:39:27.043Z,99680.50
2023-01-13T10:42:01.006Z,99696.31
2023-01-13T10:44:27.470Z,99695.22
2023-01-13T10:46:54.952Z,99695.63
2023-01-13T10:49:29.053Z,99690.66
2023-01-13T10:51:55.515Z,99692.53
2023-01-13T10:54:25.728Z,99694.63
2023-01-13T10:57:12.886Z,99689.28
2023-01-13T10:59:39.291Z,99697.59
2023-01-13T11:02:25.189Z,99693.44
2023-01-13T11:05:00.295Z,99696.50
2023-01-13T11:07:29.621Z,99706.28
2023-01-13T11:10:16.856Z,99710.97
2023-01-13T11:12:50.753Z,99716.41
2023-01-13T11:15:19.668Z,99711.34
2023-01-13T11:17:48.591Z,99714.75
2023-01-13T11:20:18.966Z,99724.72
2023-01-13T11:22:46.809Z,99707.78
2023-01-13T11:25:16.247Z,99712.59
2023-01-13T11:27:43.793Z,99713.84
2023-01-13T11:30:20.962Z,99707.75
2023-01-13T11:33:05.286Z,99695.53
2023-01-13T11:35:34.003Z,99704.81
2023-01-13T11:38:04.443Z,99712.06
2023-01-13T11:40:34.264Z,99708.00
2023-01-13T11:43:03.861Z,99715.72
2023-01-13T11:45:36.630Z,99716.28
2023-01-13T11:48:03.206Z,99715.56
2023-01-13T11:50:34.229Z,99710.38
2023-01-13T11:53:15.743Z,99711.56
2023-01-13T11:55:46.376Z,99718.66
2023-01-13T11:58:23.879Z,99699.13
2023-01-13T12:01:02.647Z,99716.50
2023-01-13T12:03:32.389Z,99710.47
2023-01-13T12:06:13.721Z,99703.50
2023-01-13T12:08:52.119Z,99697.47
2023-01-13T12:11:21.767Z,99706.22
2023-01-13T12:13:56.885Z,99709.91
2023-01-13T12:16:26.986Z,99712.81
2023-01-13T12:19:11.071Z,99708.09
2023-01-13T12:21:38.667Z,99705.22
2023-01-13T12:24:11.068Z,99698.34
2023-01-13T12:26:38.851Z,99705.66
2023-01-13T12:29:07.375Z,99701.72
2023-01-13T12:31:38.526Z,99711.22
2023-01-13T12:34:12.897Z,99719.88
2023-01-13T12:36:47.758Z,99712.47
2023-01-13T12:39:18.046Z,99719.88
2023-01-13T12:41:46.736Z,99720.25
2023-01-13T12:44:13.236Z,99716.69
2023-01-13T12:46:52.092Z,99717.31
2023-01-13T12:49:23.160Z,99707.41
2023-01-13T12:52:04.837Z,99716.69
2023-01-13T12:54:52.673Z,99709.44
2023-01-13T12:57:20.667Z,99713.66
2023-01-13T13:00:12.969Z,99711.13
2023-01-13T13:02:42.675Z,99707.19
2023-01-13T13:05:24.212Z,99700.88
2023-01-13T13:07:52.169Z,99707.34
2023-01-13T13:10:23.260Z,99706.66
2023-01-13T13:12:54.307Z,99712.72
2023-01-13T13:15:21.671Z,99713.34
2023-01-13T13:18:06.100Z,99717.00
2023-01-13T13:20:47.594Z,99729.22
2023-01-13T13:23:27.883Z,99739.69
2023-01-13T13:26:03.179Z,99754.69
2023-01-13T13:28:33.774Z,99753.00
2023-01-13T13:31:12.170Z,99771.47
2023-01-13T13:33:45.261Z,99778.56
2023-01-13T13:36:16.541Z,99774.59
2023-01-13T13:38:53.690Z,99776.50
2023-01-13T13:41:20.928Z,99768.88
2023-01-13T13:43:47.525Z,99775.41
2023-01-13T13:46:22.811Z,99778.81
2023-01-13T13:48:54.882Z,99795.03
2023-01-13T13:51:24.583Z,99806.84
2023-01-13T13:53:51.032Z,99803.69
2023-01-13T13:56:18.539Z,99799.97
2023-01-13T13:58:46.818Z,99801.72
2023-01-13T14:01:19.500Z,99799.81
2023-01-13T14:03:45.961Z,99799.19
2023-01-13T14:06:21.329Z,99797.22
2023-01-13T14:08:49.861Z,99789.97
2023-01-13T14:11:26.391Z,99799.91
2023-01-13T14:14:00.759Z,99797.91
2023-01-13T14:16:27.183Z,99793.19
2023-01-13T14:18:54.669Z,99798.63
2023-01-13T14:21:25.070Z,99802.72
2023-01-13T14:23:52.188Z,99808.38
2023-01-13T14:26:23.191Z,99806.25
2023-01-13T14:28:49.667Z,99808.56
2023-01-13T14:31:16.211Z,99818.97
2023-01-13T14:33:44.844Z,99821.66
2023-01-13T14:36:15.924Z,99824.34
2023-01-13T14:38:45.738Z,99825.50
2023-01-13T14:41:20.148Z,99820.88
2023-01-13T14:43:47.432Z,99829.44
2023-01-13T14:46:14.077Z,99834.72
2023-01-13T14:48:41.915Z,99835.56
2023-01-13T14:51:09.530Z,99843.06
2023-01-13T14:53:38.030Z,99838.91
2023-01-13T14:56:19.701Z,99840.56
2023-01-13T14:58:48.693Z,99848.00
2023-01-13T15:01:26.343Z,99843.44
2023-01-13T15:03:52.896Z,99846.41
2023-01-13T15:06:21.685Z,99846.34
2023-01-13T15:08:48.148Z,99858.00
2023-01-13T15:11:19.968Z,99846.25
2023-01-13T15:13:53.415Z,99857.03
2023-01-13T15:16:21.728Z,99859.97
2023-01-13T15:18:48.195Z,99863.19
2023-01-13T15:21:14.673Z,99872.09
2023-01-13T15:23:41.348Z,99877.91
2023-01-13T15:26:15.687Z,99872.47
2023-01-13T15:28:42.070Z,99879.53
2023-01-13T15:31:11.532Z,99886.97
2023-01-13T15:33:38.009Z,99895.03
2023-01-13T15:36:06.616Z,99881.22
2023-01-13T15:38:33.097Z,99885.09
2023-01-13T15:40:59.504Z,99892.06
2023-01-13T15:43:25.890Z,99883.88
2023-01-13T15:45:52.269Z,99900.88
2023-01-13T15:48:22.802Z,99907.09
2023-01-13T15:50:49.234Z,99917.69
2023-01-13T15:53:15.973Z,99913.78
2023-01-13T15:55:43.714Z,99920.09
2023-01-13T15:58:11.199Z,99930.03
2023-01-13T16:00:37.725Z,99931.41
2023-01-13T16:03:04.292Z,99933.34
2023-01-13T16:05:33.360Z,99930.66
2023-01-13T16:07:59.750Z,99928.63
2023-01-13T16:10:27.771Z,99936.78
2023-01-13T16:12:54.790Z,99945.50
2023-01-13T16:15:21.248Z,99945.22
2023-01-13T16:17:51.655Z,99938.28
2023-01-13T16:20:18.500Z,99953.47
2023-01-13T16:22:47.533Z,99954.06
2023-01-13T16:25:15.901Z,99957.59
2023-01-13T16:27:44.182Z,99969.09
2023-01-13T16:30:20.424Z,99955.81
2023-01-13T16:32:46.950Z,99964.44
2023-01-13T16:35:13.453Z,99976.97
2023-01-13T16:37:39.970Z,99971.88
2023-01-13T16:40:17.746Z,99975.94
2023-01-13T16:42:44.202Z,99986.34
2023-01-13T16:45:11.096Z,99985.88
2023-01-13T16:47:37.505Z,99993.69
2023-01-13T16:50:04.192Z,99983.00
2023-01-13T16:52:30.570Z,100001.53
2023-01-13T16:54:56.981Z,99999.06
2023-01-13T16:57:25.979Z,99992.19
2023-01-13T16:59:52.419Z,99998.00
2023-01-13T17:02:20.789Z,100005.34
2023-01-13T17:04:47.397Z,100020.75
2023-01-13T17:07:16.508Z,100013.38
2023-01-13T17:09:42.943Z,100009.91
2023-01-13T17:12:09.636Z,100018.88
2023-01-13T17:14:38.661Z,100024.00
2023-01-13T17:17:05.114Z,100035.13
2023-01-13T17:19:31.519Z,100021.84
2023-01-13T17:21:57.915Z,100028.53
2023-01-13T17:24:24.354Z,100040.66
2023-01-13T17:26:50.994Z,100055.59
2023-01-13T17:29:18.495Z,100050.41
2023-01-13T17:31:47.745Z,100064.72
2023-01-13T17:34:14.439Z,100071.88
2023-01-13T17:36:41.440Z,100070.22
2023-01-13T17:39:07.836Z,100075.75
2023-01-13T17:41:34.273Z,100081.97
2023-01-13T17:44:00.720Z,100079.28
2023-01-13T17:46:27.239Z,100077.19
2023-01-13T17:48:56.238Z,100084.63
2023-01-13T17:51:22.697Z,100081.44
2023-01-13T17:53:49.134Z,100086.47
2023-01-13T17:56:15.784Z,100087.31
2023-01-13T17:58:42.387Z,100089.09
2023-01-13T18:01:09.674Z,100077.97
2023-01-13T18:03:36.919Z,100083.53
2023-01-13T18:06:08.163Z,100078.34
2023-01-13T18:08:34.783Z,100086.56
2023-01-13T18:11:01.206Z,100095.84
2023-01-13T18:13:27.631Z,100098.34
2023-01-13T18:16:03.831Z,100093.41
2023-01-13T18:18:30.263Z,100106.50
2023-01-13T18:20:56.751Z,100115.88
2023-01-13T18:23:25.764Z,100112.81
2023-01-13T18:25:52.257Z,100126.03
2023-01-13T18:28:18.812Z,100117.97
2023-01-13T18:30:45.289Z,100121.72
2023-01-13T18:33:11.735Z,100131.94
2023-01-13T18:35:38.597Z,100128.75
2023-01-13T18:38:05.136Z,100141.06
2023-01-13T18:40:34.177Z,100131.16
2023-01-13T18:43:00.699Z,100133.34
2023-01-13T18:45:28.185Z,100129.88
2023-01-13T18:47:55.114Z,100132.44
2023-01-13T18:50:21.771Z,100133.78
2023-01-13T18:52:50.906Z,100134.81
2023-01-13T18:55:17.843Z,100137.09
2023-01-13T18:57:46.862Z,100143.63
2023-01-13T19:00:14.965Z,100142.06
2023-01-13T19:02:41.431Z,100162.38
2023-01-13T19:05:08.530Z,100158.34
2023-01-13T19:07:35.163Z,100167.66
2023-01-13T19:10:01.652Z,100159.63
2023-01-13T19:12:28.096Z,100167.69
2023-01-13T19:14:57.645Z,100172.41
2023-01-13T19:17:24.791Z,100173.19
2023-01-13T19:19:52.348Z,100179.78
2023-01-13T19:22:19.920Z,100188.88
2023-01-13T19:24:46.429Z,100184.84
2023-01-13T19:27:13.623Z,100195.09
2023-01-13T19:29:50.587Z,100196.06
2023-01-13T19:32:22.435Z,100198.88
2023-01-13T19:34:49.429Z,100193.66
2023-01-13T19:37:15.848Z,100199.53
2023-01-13T19:39:42.757Z,100200.84
2023-01-13T19:42:09.919Z,100218.34
2023-01-13T19:44:36.341Z,100227.41
2023-01-13T19:47:02.757Z,100216.66
2023-01-13T19:49:31.905Z,100232.78
2023-01-13T19:51:58.337Z,100212.41
2023-01-13T19:54:24.883Z,100226.69
2023-01-13T19:56:51.428Z,100226.34
2023-01-13T19:59:17.858Z,100232.56
2023-01-13T20:01:44.309Z,100234.41
2023-01-13T20:04:10.881Z,100230.59
2023-01-13T20:06:40.137Z,100236.78
2023-01-13T20:09:06.716Z,100243.69
2023-01-13T20:11:33.110Z,100242.91
2023-01-13T20:14:00.099Z,100241.06
2023-01-13T20:16:27.090Z,100240.22
2023-01-13T20:18:53.496Z,100240.88
2023-01-13T20:21:19.910Z,100249.13
2023-01-13T20:23:51.647Z,100251.47
2023-01-13T20:26:18.111Z,100251.31
2023-01-13T20:28:44.551Z,100254.50
2023-01-13T20:31:11.748Z,100255.28
2023-01-13T20:33:39.148Z,100257.63
2023-01-13T20:36:06.601Z,100262.72
2023-01-13T20:38:33.166Z,100255.78
2023-01-13T20:41:03.271Z,100270.69
2023-01-13T20:43:29.874Z,100275.13
2023-01-13T20:45:56.540Z,100276.91
2023-01-13T20:48:23.582Z,100275.66
2023-01-13T20:50:53.435Z,100272.59
2023-01-13T20:53:19.943Z,100284.34
2023-01-13T20:55:46.449Z,100288.22
2023-01-13T20:58:15.565Z,100273.94
2023-01-13T21:00:42.216Z,100270.25
2023-01-13T21:03:08.835Z,100307.22
2023-01-13T21:05:36.140Z,100309.56
2023-01-13T21:08:02.587Z,100302.00
2023-01-13T21:10:29.035Z,100316.28
2023-01-13T21:12:55.451Z,100323.38
2023-01-13T21:15:24.507Z,100324.53
2023-01-13T21:17:51.661Z,100336.84
2023-01-13T21:20:18.296Z,100342.38
2023-01-13T21:22:44.963Z,100350.47
2023-01-13T21:25:11.662Z,100339.19
2023-01-13T21:27:38.502Z,100354.47
2023-01-13T21:30:05.541Z,100349.44
2023-01-13T21:32:34.520Z,100357.66
2023-01-13T21:35:00.914Z,100360.56
2023-01-13T21:37:27.358Z,100364.09
2023-01-13T21:39:53.768Z,100349.81
2023-01-13T21:42:20.206Z,100335.53
2023-01-13T21:44:46.776Z,100355.69
2023-01-13T21:47:14.405Z,100369.00
2023-01-13T21:49:43.427Z,100365.16
2023-01-13T21:52:10.324Z,100371.22
2023-01-13T21:54:36.757Z,100373.09
2023-01-13T21:57:03.261Z,100369.25
2023-01-13T21:59:29.764Z,100383.56
2023-01-13T22:02:23.998Z,100376.97
2023-01-13T22:04:45.106Z,100385.59
2023-01-13T22:07:11.496Z,100376.63
2023-01-13T22:09:37.909Z,100393.44
2023-01-13T22:12:04.667Z,100392.28
2023-01-13T22:14:31.809Z,100395.13
2023-01-13T22:16:58.223Z,100401.81
2023-01-13T22:19:24.660Z,100401.16
2023-01-13T22:21:53.704Z,100401.00
2023-01-13T22:24:20.148Z,100405.06
2023-01-13T22:26:46.539Z,100409.56
2023-01-13T22:29:12.957Z,100416.97
2023-01-13T22:31:39.417Z,100422.72
2023-01-13T22:34:05.865Z,100428.09
2023-01-13T22:36:32.304Z,100436.16
2023-01-13T22:39:01.363Z,100438.66
2023-01-13T22:41:27.791Z,100447.06
2023-01-13T22:43:54.215Z,100441.19
2023-01-13T22:46:20.625Z,100445.44
2023-01-13T22:48:47.035Z,100443.25
2023-01-13T22:51:14.253Z,100459.69
2023-01-13T22:53:41.079Z,100467.59
2023-01-13T22:56:15.331Z,100478.03
2023-01-13T22:58:41.740Z,100474.84
2023-01-13T23:01:09.216Z,100472.31
2023-01-13T23:03:35.740Z,100475.69
2023-01-13T23:06:02.187Z,100478.88
2023-01-13T23:08:28.590Z,100475.66
2023-01-13T23:11:00.041Z,100473.97
2023-01-13T23:13:29.041Z,100477.50
2023-01-13T23:15:55.450Z,100491.25
2023-01-13T23:18:24.203Z,100491.09
2023-01-13T23:20:50.616Z,100493.06
2023-01-13T23:23:17.019Z,100488.34
2023-01-13T23:25:48.484Z,100488.69
2023-01-13T23:28:14.897Z,100500.13
2023-01-13T23:30:43.900Z,100506.88
2023-01-13T23:33:10.301Z,100506.00
2023-01-13T23:35:36.704Z,100502.63
2023-01-13T23:38:03.120Z,100507.66
2023-01-13T23:40:29.628Z,100506.81
2023-01-13T23:42:56.114Z,100502.34
2023-01-13T23:45:22.547Z,100503.69
2023-01-13T23:47:51.596Z,100504.56
2023-01-13T23:50:18.146Z,100504.38
2023-01-13T23:52:44.533Z,100503.53
2023-01-13T23:55:11.141Z,100505.69
2023-01-13T23:57:37.565Z,100509.38
